Gas Renovatio — 9HA2845 — position and weather

sailwx.info

Track history (hours):
 
Tides and Currents Weather Stations Pressure Air Temp Water Temp Dewpoint Dewpoint Depression Visibility Wind Speed Wind Dir Waves Ship Positions

Gas Renovatio

Last reported at 2014-Jul-30 04:06 UTC. Time now 2014-Aug-01 22:35 UTC.
Position N 36°40' W 010°46'.

Length 99 m; draft 5.3 m.

Type: Tanker. MMSI: 256325000.

Date/timePositionNaut miles runAvg speedWind from/ knotsBaromVisibWave heightAir tempDewpointWater temp
2014-Jul-30 04:06N 36°40' W 010°46'86 9.9
2014-Jul-29 19:22N 37°35' W 009°23'8 9.9
2014-Jul-29 18:33N 37°40' W 009°15'10 9.7
2014-Jul-29 17:32N 37°47' W 009°05'10 9.7
2014-Jul-29 16:33N 37°53' W 008°56'5 4.7
2014-Jul-29 15:32N 37°57' W 008°53'0 0.0
2014-Jul-29 14:32N 37°57' W 008°53'0 0.0
2014-Jul-29 13:32N 37°57' W 008°53'0 0.0
2014-Jul-29 12:32N 37°57' W 008°53'0 0.0
2014-Jul-29 11:32N 37°57' W 008°53'0 0.0
2014-Jul-29 10:32N 37°57' W 008°53'0 0.0
2014-Jul-29 09:32N 37°57' W 008°53'0 0.0
2014-Jul-29 08:32N 37°57' W 008°53'0 0.0
2014-Jul-29 07:32N 37°57' W 008°53'0 0.0
2014-Jul-29 06:32N 37°57' W 008°53'0 0.0
2014-Jul-29 05:32N 37°57' W 008°53'0 0.0
2014-Jul-29 04:32N 37°57' W 008°53'0 0.0
2014-Jul-29 03:32N 37°57' W 008°53'0 0.0
2014-Jul-29 02:32N 37°57' W 008°53'0 0.0
2014-Jul-29 01:32N 37°57' W 008°53'0 0.0
2014-Jul-29 00:32N 37°57' W 008°53'0 0.0
2014-Jul-28 23:32N 37°57' W 008°53'0 0.0
2014-Jul-28 22:32N 37°57' W 008°53'0 0.0
2014-Jul-28 21:32N 37°57' W 008°53'0 0.0
2014-Jul-28 20:32N 37°57' W 008°53'0 0.0
2014-Jul-28 19:32N 37°57' W 008°53'0 0.0
2014-Jul-28 18:32N 37°57' W 008°53'0 0.0
2014-Jul-28 17:32N 37°57' W 008°53'0 0.0
2014-Jul-28 16:32N 37°57' W 008°53'0 0.0
2014-Jul-28 15:32N 37°57' W 008°53'0 0.0
2014-Jul-28 14:32N 37°57' W 008°53'0 0.0
2014-Jul-28 13:32N 37°57' W 008°53'0 0.0
2014-Jul-28 12:32N 37°57' W 008°53'1 0.8
2014-Jul-28 11:33N 37°56' W 008°53'2 2.0
2014-Jul-28 10:33N 37°54' W 008°54'3 3.0
2014-Jul-28 09:33N 37°53' W 008°57'2 1.9
2014-Jul-28 08:33N 37°54' W 008°55'1 0.7
2014-Jul-28 07:33N 37°55' W 008°56'5 4.9
2014-Jul-28 06:33N 37°53' W 009°02'1010.1
2014-Jul-28 05:33N 37°53' W 009°15'1010.3
2014-Jul-28 04:33N 37°53' W 009°28'7310.4
2014-Jul-27 21:33N 37°51' W 011°00'1110.5
2014-Jul-27 20:31N 37°51' W 011°14'1310.2
2014-Jul-27 19:14N 37°51' W 011°31'  
2014-Jul-25 09:15N 37°42' W 023°37'710.2
2014-Jul-25 08:33N 37°41' W 023°46'1010.2
2014-Jul-25 07:33N 37°41' W 023°59'1010.0
2014-Jul-25 06:33N 37°41' W 024°12'10 9.9
2014-Jul-25 05:34N 37°41' W 024°24'1110.5
2014-Jul-25 04:33N 37°41' W 024°37'1010.0
2014-Jul-25 03:33N 37°40' W 024°50'10 9.9
2014-Jul-25 02:33N 37°40' W 025°02'1010.3
2014-Jul-25 01:33N 37°40' W 025°15'1110.6
2014-Jul-25 00:34N 37°40' W 025°29'9 9.1
2014-Jul-24 23:34N 37°44' W 025°39'1 0.7
2014-Jul-24 22:32N 37°44' W 025°40'0 0.0
2014-Jul-24 21:32N 37°44' W 025°40'0 0.0
2014-Jul-24 20:32N 37°44' W 025°40'0 0.0
2014-Jul-24 19:32N 37°44' W 025°40'0 0.0
2014-Jul-24 18:32N 37°44' W 025°40'0 0.0
2014-Jul-24 17:32N 37°44' W 025°40'0 0.0
2014-Jul-24 16:32N 37°44' W 025°40'0 0.0
2014-Jul-24 15:32N 37°44' W 025°40'0 0.0
2014-Jul-24 14:32N 37°44' W 025°40'0 0.0
2014-Jul-24 13:32N 37°44' W 025°40'0 0.0
2014-Jul-24 12:32N 37°44' W 025°40'0 0.0
2014-Jul-24 11:32N 37°44' W 025°40'0 0.0
2014-Jul-24 10:32N 37°44' W 025°40'0 0.0
2014-Jul-24 09:32N 37°44' W 025°40'0 0.0
2014-Jul-24 08:32N 37°44' W 025°40'1 0.9
2014-Jul-24 07:33N 37°44' W 025°39'4 3.5
2014-Jul-24 06:34N 37°43' W 025°43'10 9.5
2014-Jul-24 05:33N 37°48' W 025°53'10 9.7
2014-Jul-24 04:33N 37°55' W 026°02'1010.1
2014-Jul-24 03:33N 38°03' W 026°10'10 9.9
2014-Jul-24 02:33N 38°10' W 026°19'10 9.9
2014-Jul-24 01:33N 38°17' W 026°28'1010.0
2014-Jul-24 00:33N 38°24' W 026°37'10 9.6
2014-Jul-23 23:34N 38°31' W 026°45'1010.0
2014-Jul-23 22:33N 38°38' W 026°54'8 8.5
2014-Jul-23 21:33N 38°43' W 027°03'1 0.1
2014-Jul-23 14:03N 38°43' W 027°03'0 0.0
2014-Jul-23 12:33N 38°43' W 027°03'1 0.6
2014-Jul-23 11:33N 38°43' W 027°02'0 0.0
2014-Jul-23 10:33N 38°43' W 027°02'0 0.0
2014-Jul-23 09:30N 38°43' W 027°02'0 0.0
2014-Jul-23 08:33N 38°43' W 027°02'0 0.1
2014-Jul-23 07:33N 38°43' W 027°02'0 0.1
2014-Jul-23 06:33N 38°43' W 027°02'5 5.5
2014-Jul-23 05:34N 38°38' W 027°00'9 8.7
2014-Jul-23 04:32N 38°34' W 027°10'10 9.9
2014-Jul-23 03:34N 38°32' W 027°22'1010.1
2014-Jul-23 02:34N 38°29' W 027°35'8 8.4
2014-Jul-23 01:34N 38°29' W 027°45'1010.1
2014-Jul-23 00:34N 38°31' W 027°58'1010.3
2014-Jul-22 23:34N 38°33' W 028°11'1010.0
2014-Jul-22 22:34N 38°35' W 028°23'9 9.4
2014-Jul-22 21:34N 38°33' W 028°35'2 2.0
2014-Jul-22 20:31N 38°32' W 028°37'0 0.0
2014-Jul-22 19:31N 38°32' W 028°37'0 0.0
2014-Jul-22 18:31N 38°32' W 028°37'0 0.0
2014-Jul-22 17:32N 38°32' W 028°37'0 0.0
2014-Jul-22 16:31N 38°32' W 028°37'0 0.0
2014-Jul-22 15:31N 38°32' W 028°37'0 0.0
2014-Jul-22 14:32N 38°32' W 028°37'0 0.4
2014-Jul-22 13:33N 38°32' W 028°37'1 0.5
2014-Jul-22 12:32N 38°32' W 028°37'0 0.0
2014-Jul-22 11:32N 38°32' W 028°37'0 0.0
2014-Jul-22 10:32N 38°32' W 028°37'0 0.0
2014-Jul-22 09:32N 38°32' W 028°37'0 0.0
2014-Jul-22 08:32N 38°32' W 028°37'0 0.1
2014-Jul-22 07:33N 38°32' W 028°37'8 8.3
2014-Jul-22 06:34N 38°36' W 028°27'9 9.2
2014-Jul-22 05:33N 38°34' W 028°16'9 8.8
2014-Jul-22 04:33N 38°31' W 028°05'9 9.2
2014-Jul-22 03:33N 38°29' W 027°54'1010.0
2014-Jul-22 02:33N 38°26' W 027°41'9 8.9
2014-Jul-22 01:33N 38°24' W 027°30'9 8.7
2014-Jul-22 00:34N 38°22' W 027°20'8 8.4
2014-Jul-21 23:33N 38°20' W 027°09'9 8.5
2014-Jul-21 22:33N 38°18' W 026°59'9 8.6
2014-Jul-21 21:33N 38°18' W 026°48'8 8.5
2014-Jul-21 20:33N 38°17' W 026°37'2 8.6
2014-Jul-21 20:18N 38°17' W 026°34'6 8.2
2014-Jul-21 19:34N 38°17' W 026°26'8 8.4
2014-Jul-21 18:33N 38°17' W 026°16'8 8.4
2014-Jul-21 17:33N 38°17' W 026°05'9 8.6
2014-Jul-21 16:33N 38°17' W 025°54'9 9.0
2014-Jul-21 15:33N 38°16' W 025°43'9 9.3
2014-Jul-21 14:34N 38°16' W 025°31'9 9.3
2014-Jul-21 13:33N 38°16' W 025°19'9 8.9
2014-Jul-21 12:33N 38°16' W 025°08'9 9.3
2014-Jul-21 11:33N 38°15' W 024°56'9 9.0
2014-Jul-21 10:33N 38°15' W 024°44'9 9.0
2014-Jul-21 09:34N 38°15' W 024°33'9 9.1
2014-Jul-21 08:33N 38°14' W 024°21'9 9.0
2014-Jul-21 07:33N 38°14' W 024°10'9 9.1
2014-Jul-21 06:33N 38°14' W 023°58'  
Track history (hours):
 
Tides and Currents Weather Stations Pressure Air Temp Water Temp Dewpoint Dewpoint Depression Visibility Wind Speed Wind Dir Waves Ship Positions

Gas Renovatio

Last reported at 2014-Jul-30 04:06 UTC. Time now 2014-Aug-01 22:35 UTC.
Position N 36°40' W 010°46'.

Length 99 m; draft 5.3 m.

Type: Tanker. MMSI: 256325000.

Date/timePositionNaut miles runAvg speedWind from/ knotsBaromVisibWave heightAir tempDewpointWater temp
2014-Jul-30 04:06N 36°40' W 010°46'86 9.9
2014-Jul-29 19:22N 37°35' W 009°23'8 9.9
2014-Jul-29 18:33N 37°40' W 009°15'10 9.7
2014-Jul-29 17:32N 37°47' W 009°05'10 9.7
2014-Jul-29 16:33N 37°53' W 008°56'5 4.7
2014-Jul-29 15:32N 37°57' W 008°53'0 0.0
2014-Jul-29 14:32N 37°57' W 008°53'0 0.0
2014-Jul-29 13:32N 37°57' W 008°53'0 0.0
2014-Jul-29 12:32N 37°57' W 008°53'0 0.0
2014-Jul-29 11:32N 37°57' W 008°53'0 0.0
2014-Jul-29 10:32N 37°57' W 008°53'0 0.0
2014-Jul-29 09:32N 37°57' W 008°53'0 0.0
2014-Jul-29 08:32N 37°57' W 008°53'0 0.0
2014-Jul-29 07:32N 37°57' W 008°53'0 0.0
2014-Jul-29 06:32N 37°57' W 008°53'0 0.0
2014-Jul-29 05:32N 37°57' W 008°53'0 0.0
2014-Jul-29 04:32N 37°57' W 008°53'0 0.0
2014-Jul-29 03:32N 37°57' W 008°53'0 0.0
2014-Jul-29 02:32N 37°57' W 008°53'0 0.0
2014-Jul-29 01:32N 37°57' W 008°53'0 0.0
2014-Jul-29 00:32N 37°57' W 008°53'0 0.0
2014-Jul-28 23:32N 37°57' W 008°53'0 0.0
2014-Jul-28 22:32N 37°57' W 008°53'0 0.0
2014-Jul-28 21:32N 37°57' W 008°53'0 0.0
2014-Jul-28 20:32N 37°57' W 008°53'0 0.0
2014-Jul-28 19:32N 37°57' W 008°53'0 0.0
2014-Jul-28 18:32N 37°57' W 008°53'0 0.0
2014-Jul-28 17:32N 37°57' W 008°53'0 0.0
2014-Jul-28 16:32N 37°57' W 008°53'0 0.0
2014-Jul-28 15:32N 37°57' W 008°53'0 0.0
2014-Jul-28 14:32N 37°57' W 008°53'0 0.0
2014-Jul-28 13:32N 37°57' W 008°53'0 0.0
2014-Jul-28 12:32N 37°57' W 008°53'1 0.8
2014-Jul-28 11:33N 37°56' W 008°53'2 2.0
2014-Jul-28 10:33N 37°54' W 008°54'3 3.0
2014-Jul-28 09:33N 37°53' W 008°57'2 1.9
2014-Jul-28 08:33N 37°54' W 008°55'1 0.7
2014-Jul-28 07:33N 37°55' W 008°56'5 4.9
2014-Jul-28 06:33N 37°53' W 009°02'1010.1
2014-Jul-28 05:33N 37°53' W 009°15'1010.3
2014-Jul-28 04:33N 37°53' W 009°28'7310.4
2014-Jul-27 21:33N 37°51' W 011°00'1110.5
2014-Jul-27 20:31N 37°51' W 011°14'1310.2
2014-Jul-27 19:14N 37°51' W 011°31'  
2014-Jul-25 09:15N 37°42' W 023°37'710.2
2014-Jul-25 08:33N 37°41' W 023°46'1010.2
2014-Jul-25 07:33N 37°41' W 023°59'1010.0
2014-Jul-25 06:33N 37°41' W 024°12'10 9.9
2014-Jul-25 05:34N 37°41' W 024°24'1110.5
2014-Jul-25 04:33N 37°41' W 024°37'1010.0
2014-Jul-25 03:33N 37°40' W 024°50'10 9.9
2014-Jul-25 02:33N 37°40' W 025°02'1010.3
2014-Jul-25 01:33N 37°40' W 025°15'1110.6
2014-Jul-25 00:34N 37°40' W 025°29'9 9.1
2014-Jul-24 23:34N 37°44' W 025°39'1 0.7
2014-Jul-24 22:32N 37°44' W 025°40'0 0.0
2014-Jul-24 21:32N 37°44' W 025°40'0 0.0
2014-Jul-24 20:32N 37°44' W 025°40'0 0.0
2014-Jul-24 19:32N 37°44' W 025°40'0 0.0
2014-Jul-24 18:32N 37°44' W 025°40'0 0.0
2014-Jul-24 17:32N 37°44' W 025°40'0 0.0
2014-Jul-24 16:32N 37°44' W 025°40'0 0.0
2014-Jul-24 15:32N 37°44' W 025°40'0 0.0
2014-Jul-24 14:32N 37°44' W 025°40'0 0.0
2014-Jul-24 13:32N 37°44' W 025°40'0 0.0
2014-Jul-24 12:32N 37°44' W 025°40'0 0.0
2014-Jul-24 11:32N 37°44' W 025°40'0 0.0
2014-Jul-24 10:32N 37°44' W 025°40'0 0.0
2014-Jul-24 09:32N 37°44' W 025°40'0 0.0
2014-Jul-24 08:32N 37°44' W 025°40'1 0.9
2014-Jul-24 07:33N 37°44' W 025°39'4 3.5
2014-Jul-24 06:34N 37°43' W 025°43'10 9.5
2014-Jul-24 05:33N 37°48' W 025°53'10 9.7
2014-Jul-24 04:33N 37°55' W 026°02'1010.1
2014-Jul-24 03:33N 38°03' W 026°10'10 9.9
2014-Jul-24 02:33N 38°10' W 026°19'10 9.9
2014-Jul-24 01:33N 38°17' W 026°28'1010.0
2014-Jul-24 00:33N 38°24' W 026°37'10 9.6
2014-Jul-23 23:34N 38°31' W 026°45'1010.0
2014-Jul-23 22:33N 38°38' W 026°54'8 8.5
2014-Jul-23 21:33N 38°43' W 027°03'1 0.1
2014-Jul-23 14:03N 38°43' W 027°03'0 0.0
2014-Jul-23 12:33N 38°43' W 027°03'1 0.6
2014-Jul-23 11:33N 38°43' W 027°02'0 0.0
2014-Jul-23 10:33N 38°43' W 027°02'0 0.0
2014-Jul-23 09:30N 38°43' W 027°02'0 0.0
2014-Jul-23 08:33N 38°43' W 027°02'0 0.1
2014-Jul-23 07:33N 38°43' W 027°02'0 0.1
2014-Jul-23 06:33N 38°43' W 027°02'5 5.5
2014-Jul-23 05:34N 38°38' W 027°00'9 8.7
2014-Jul-23 04:32N 38°34' W 027°10'10 9.9
2014-Jul-23 03:34N 38°32' W 027°22'1010.1
2014-Jul-23 02:34N 38°29' W 027°35'8 8.4
2014-Jul-23 01:34N 38°29' W 027°45'1010.1
2014-Jul-23 00:34N 38°31' W 027°58'1010.3
2014-Jul-22 23:34N 38°33' W 028°11'1010.0
2014-Jul-22 22:34N 38°35' W 028°23'9 9.4
2014-Jul-22 21:34N 38°33' W 028°35'2 2.0
2014-Jul-22 20:31N 38°32' W 028°37'0 0.0
2014-Jul-22 19:31N 38°32' W 028°37'0 0.0
2014-Jul-22 18:31N 38°32' W 028°37'0 0.0
2014-Jul-22 17:32N 38°32' W 028°37'0 0.0
2014-Jul-22 16:31N 38°32' W 028°37'0 0.0
2014-Jul-22 15:31N 38°32' W 028°37'0 0.0
2014-Jul-22 14:32N 38°32' W 028°37'0 0.4
2014-Jul-22 13:33N 38°32' W 028°37'1 0.5
2014-Jul-22 12:32N 38°32' W 028°37'0 0.0
2014-Jul-22 11:32N 38°32' W 028°37'0 0.0
2014-Jul-22 10:32N 38°32' W 028°37'0 0.0
2014-Jul-22 09:32N 38°32' W 028°37'0 0.0
2014-Jul-22 08:32N 38°32' W 028°37'0 0.1
2014-Jul-22 07:33N 38°32' W 028°37'8 8.3
2014-Jul-22 06:34N 38°36' W 028°27'9 9.2
2014-Jul-22 05:33N 38°34' W 028°16'9 8.8
2014-Jul-22 04:33N 38°31' W 028°05'9 9.2
2014-Jul-22 03:33N 38°29' W 027°54'1010.0
2014-Jul-22 02:33N 38°26' W 027°41'9 8.9
2014-Jul-22 01:33N 38°24' W 027°30'9 8.7
2014-Jul-22 00:34N 38°22' W 027°20'8 8.4
2014-Jul-21 23:33N 38°20' W 027°09'9 8.5
2014-Jul-21 22:33N 38°18' W 026°59'9 8.6
2014-Jul-21 21:33N 38°18' W 026°48'8 8.5
2014-Jul-21 20:33N 38°17' W 026°37'2 8.6
2014-Jul-21 20:18N 38°17' W 026°34'6 8.2
2014-Jul-21 19:34N 38°17' W 026°26'8 8.4
2014-Jul-21 18:33N 38°17' W 026°16'8 8.4
2014-Jul-21 17:33N 38°17' W 026°05'9 8.6
2014-Jul-21 16:33N 38°17' W 025°54'9 9.0
2014-Jul-21 15:33N 38°16' W 025°43'9 9.3
2014-Jul-21 14:34N 38°16' W 025°31'9 9.3
2014-Jul-21 13:33N 38°16' W 025°19'9 8.9
2014-Jul-21 12:33N 38°16' W 025°08'9 9.3
2014-Jul-21 11:33N 38°15' W 024°56'9 9.0
2014-Jul-21 10:33N 38°15' W 024°44'9 9.0
2014-Jul-21 09:34N 38°15' W 024°33'9 9.1
2014-Jul-21 08:33N 38°14' W 024°21'9 9.0
2014-Jul-21 07:33N 38°14' W 024°10'9 9.1
2014-Jul-21 06:33N 38°14' W 023°58'  

Dump ship's entire track history